Terminal Aerodrome Forecast
Issued by NWS

Home | Current Version | Previous Version | Graphics & Text | Print | Product List | Glossary On
Versions: 1 2 3 4 5 6 7 8 9 10 11 12 13 14 15 16
000
FTUS43 KMPX 230500
TAFRWF
TAF
KRWF 230520Z 2306/2406 17005KT P6SM SKC
     FM231500 17011KT P6SM SCT150
     FM231800 17013G18KT P6SM BKN040 OVC120
     FM240000 15012KT P6SM OVC040 PROB30 2401/2406 6SM -RA BKN025
      OVC035=

USA.gov is the U.S. government's official web portal to all federal, state and local government web resources and services.